createdAt,value
2023-05-07T00:04:28.134Z,5.70
2023-05-07T00:09:35.145Z,5.64
2023-05-07T00:14:42.052Z,5.65
2023-05-07T00:19:50.080Z,5.63
2023-05-07T00:24:56.697Z,5.59
2023-05-07T00:30:04.125Z,5.59
2023-05-07T00:35:16.452Z,5.63
2023-05-07T00:40:23.332Z,5.53
2023-05-07T00:45:31.258Z,5.51
2023-05-07T00:50:39.559Z,5.50
2023-05-07T00:55:46.297Z,5.51
2023-05-07T01:00:53.181Z,5.44
2023-05-07T01:06:03.020Z,5.52
2023-05-07T01:11:10.773Z,5.45
2023-05-07T01:16:17.506Z,5.44
2023-05-07T01:21:29.403Z,5.47
2023-05-07T01:26:41.187Z,5.47
2023-05-07T01:31:50.062Z,5.39
2023-05-07T01:36:59.339Z,5.39
2023-05-07T01:42:08.275Z,5.40
2023-05-07T01:47:16.584Z,5.37
2023-05-07T01:52:23.053Z,5.35
2023-05-07T01:57:30.886Z,5.38
2023-05-07T02:02:37.877Z,5.23
2023-05-07T02:07:44.885Z,5.28
2023-05-07T02:12:56.635Z,5.29
2023-05-07T02:18:06.015Z,5.19
2023-05-07T02:23:13.076Z,5.23
2023-05-07T02:28:21.116Z,5.21
2023-05-07T02:33:39.022Z,5.23
2023-05-07T02:38:47.714Z,5.28
2023-05-07T02:43:55.889Z,5.26
2023-05-07T02:49:02.903Z,5.23
2023-05-07T02:54:10.519Z,5.27
2023-05-07T02:59:18.448Z,5.25
2023-05-07T03:04:25.273Z,5.32
2023-05-07T03:09:32.164Z,5.31
2023-05-07T03:14:40.356Z,5.32
2023-05-07T03:19:46.885Z,5.33
2023-05-07T03:24:54.156Z,5.28
2023-05-07T03:30:02.684Z,5.36
2023-05-07T03:35:11.282Z,5.33
2023-05-07T03:40:19.433Z,5.35
2023-05-07T03:45:31.376Z,5.40
2023-05-07T03:50:50.103Z,5.43
2023-05-07T03:55:58.483Z,5.37
2023-05-07T04:01:07.958Z,5.39
2023-05-07T04:06:15.749Z,5.39
2023-05-07T04:11:24.396Z,5.37
2023-05-07T04:16:32.239Z,5.40
2023-05-07T04:21:38.663Z,5.44
2023-05-07T04:26:45.125Z,5.50
2023-05-07T04:31:52.944Z,5.51
2023-05-07T04:37:02.282Z,5.59
2023-05-07T04:42:10.255Z,5.58
2023-05-07T04:47:18.242Z,5.61
2023-05-07T04:52:27.348Z,5.60
2023-05-07T04:57:35.216Z,5.67
2023-05-07T05:02:43.326Z,5.70
2023-05-07T05:07:53.056Z,5.72
2023-05-07T05:13:00.256Z,5.80
2023-05-07T05:18:10.393Z,5.76
2023-05-07T05:23:17.671Z,5.77
2023-05-07T05:28:24.370Z,5.80
2023-05-07T05:33:32.452Z,5.85
2023-05-07T05:38:43.454Z,5.85
2023-05-07T05:43:52.507Z,5.94
2023-05-07T05:49:01.160Z,5.97
2023-05-07T05:54:07.849Z,6.08
2023-05-07T05:59:15.002Z,6.13
2023-05-07T06:04:24.111Z,5.99
2023-05-07T06:09:30.578Z,6.06
2023-05-07T06:14:37.117Z,6.10
2023-05-07T06:19:45.365Z,6.29
2023-05-07T06:24:53.174Z,6.43
2023-05-07T06:30:02.623Z,6.55
2023-05-07T06:35:13.301Z,6.65
2023-05-07T06:40:21.376Z,6.84
2023-05-07T06:45:29.375Z,6.90
2023-05-07T06:50:38.552Z,6.81
2023-05-07T06:55:45.060Z,6.83
2023-05-07T07:00:52.926Z,7.02
2023-05-07T07:06:03.219Z,7.07
2023-05-07T07:11:13.019Z,7.22
2023-05-07T07:16:19.726Z,7.23
2023-05-07T07:21:28.033Z,7.33
2023-05-07T07:26:34.745Z,7.43
2023-05-07T07:31:42.104Z,7.40
2023-05-07T07:36:51.407Z,7.49
2023-05-07T07:41:59.749Z,7.59
2023-05-07T07:47:09.121Z,7.69
2023-05-07T07:52:17.229Z,7.71
2023-05-07T07:57:25.127Z,7.98
2023-05-07T08:02:31.932Z,7.93
2023-05-07T08:07:40.240Z,7.92
2023-05-07T08:12:46.985Z,7.76
2023-05-07T08:17:53.967Z,7.88
2023-05-07T08:23:02.297Z,7.96
2023-05-07T08:28:10.152Z,8.03
2023-05-07T08:33:18.916Z,8.28
2023-05-07T08:38:27.513Z,8.38
2023-05-07T08:43:36.281Z,8.42
2023-05-07T08:48:43.926Z,8.65
2023-05-07T08:53:55.803Z,8.70
2023-05-07T08:59:08.096Z,8.82
2023-05-07T09:04:17.936Z,8.88
2023-05-07T09:09:27.380Z,8.94
2023-05-07T09:14:35.714Z,9.04
2023-05-07T09:19:44.222Z,8.96
2023-05-07T09:24:53.781Z,8.92
2023-05-07T09:30:08.563Z,8.95
2023-05-07T09:35:23.028Z,9.19
2023-05-07T09:40:38.094Z,9.45
2023-05-07T09:45:52.810Z,9.71
2023-05-07T09:51:09.301Z,9.76
2023-05-07T09:56:20.414Z,9.69
2023-05-07T10:01:28.489Z,9.72
2023-05-07T10:06:36.308Z,9.92
2023-05-07T10:11:45.467Z,10.15
2023-05-07T10:16:54.152Z,10.02
2023-05-07T10:22:08.142Z,10.20
2023-05-07T10:27:24.094Z,10.37
2023-05-07T10:32:43.869Z,10.36
2023-05-07T10:37:56.954Z,10.51
2023-05-07T10:43:10.873Z,10.50
2023-05-07T10:48:37.964Z,10.53
2023-05-07T10:53:50.524Z,10.67
2023-05-07T10:59:43.515Z,10.53
2023-05-07T11:05:24.248Z,10.47
2023-05-07T11:10:55.114Z,10.53
2023-05-07T11:16:26.238Z,10.64
2023-05-07T11:21:46.053Z,10.74
2023-05-07T11:27:11.230Z,10.91
2023-05-07T11:32:26.244Z,11.04
2023-05-07T11:37:35.485Z,11.18
2023-05-07T11:42:45.095Z,11.31
2023-05-07T11:47:53.559Z,11.45
2023-05-07T11:53:00.389Z,11.25
2023-05-07T11:58:08.966Z,11.09
2023-05-07T12:03:19.453Z,11.20
2023-05-07T12:08:26.158Z,11.61
2023-05-07T12:13:33.345Z,11.65
2023-05-07T12:18:42.771Z,11.73
2023-05-07T12:23:50.537Z,11.74
2023-05-07T12:28:57.896Z,11.72
2023-05-07T12:34:07.753Z,11.53
2023-05-07T12:39:15.762Z,11.88
2023-05-07T12:44:24.838Z,11.74
2023-05-07T12:49:33.626Z,11.64
2023-05-07T12:54:41.778Z,11.47
2023-05-07T12:59:48.760Z,11.42
2023-05-07T13:04:57.426Z,11.19
2023-05-07T13:10:04.710Z,11.42
2023-05-07T13:15:13.575Z,11.62
2023-05-07T13:20:22.270Z,11.32
2023-05-07T13:25:29.139Z,11.24
2023-05-07T13:30:36.256Z,11.39
2023-05-07T13:35:45.000Z,11.38
2023-05-07T13:40:51.996Z,11.42
2023-05-07T13:45:59.290Z,11.58
2023-05-07T13:51:08.184Z,11.69
2023-05-07T13:56:15.626Z,11.72
2023-05-07T14:01:23.639Z,11.78
2023-05-07T14:06:33.193Z,11.82
2023-05-07T14:11:40.039Z,11.83
2023-05-07T14:16:48.511Z,11.97
2023-05-07T14:21:59.377Z,11.81
2023-05-07T14:27:07.100Z,11.61
2023-05-07T14:32:14.098Z,11.66
2023-05-07T14:37:25.708Z,11.68
2023-05-07T14:42:32.996Z,11.75
2023-05-07T14:47:40.136Z,11.81
2023-05-07T14:52:48.722Z,11.83
2023-05-07T14:57:55.696Z,12.06
2023-05-07T15:03:09.716Z,11.77
2023-05-07T15:08:18.350Z,11.84
2023-05-07T15:13:25.234Z,11.95
2023-05-07T15:18:32.090Z,11.96
2023-05-07T15:23:40.677Z,11.74
2023-05-07T15:28:47.550Z,11.76
2023-05-07T15:33:54.524Z,11.93
2023-05-07T15:39:05.660Z,11.88
2023-05-07T15:44:12.371Z,11.98
2023-05-07T15:49:20.355Z,11.93
2023-05-07T15:54:28.628Z,11.96
2023-05-07T15:59:36.598Z,11.91
2023-05-07T16:04:43.669Z,11.82
2023-05-07T16:09:51.818Z,11.82
2023-05-07T16:14:59.856Z,11.75
2023-05-07T16:20:09.520Z,11.71
2023-05-07T16:25:17.998Z,11.62
2023-05-07T16:30:25.045Z,11.56
2023-05-07T16:35:32.385Z,11.52
2023-05-07T16:40:42.204Z,11.42
2023-05-07T16:45:49.281Z,11.33
2023-05-07T16:50:57.951Z,11.24
2023-05-07T16:56:08.998Z,11.20
2023-05-07T17:01:16.909Z,11.12
2023-05-07T17:06:23.551Z,11.03
2023-05-07T17:11:34.258Z,10.95
2023-05-07T17:16:40.863Z,10.88
2023-05-07T17:21:47.525Z,10.79
2023-05-07T17:26:55.649Z,10.67
2023-05-07T17:32:02.894Z,10.57
2023-05-07T17:37:09.932Z,10.48
2023-05-07T17:42:18.550Z,10.39
2023-05-07T17:47:25.416Z,10.29
2023-05-07T17:52:32.932Z,10.15
2023-05-07T17:57:42.258Z,10.05
2023-05-07T18:02:49.284Z,9.92
2023-05-07T18:07:56.522Z,9.77
2023-05-07T18:13:05.193Z,9.56
2023-05-07T18:18:12.867Z,9.41
2023-05-07T18:23:20.494Z,9.30
2023-05-07T18:28:29.095Z,9.18
2023-05-07T18:33:36.244Z,9.01
2023-05-07T18:38:46.226Z,8.84
2023-05-07T18:43:58.243Z,8.71
2023-05-07T18:49:06.260Z,8.58
2023-05-07T18:54:15.449Z,8.47
2023-05-07T18:59:23.706Z,8.32
2023-05-07T19:04:32.498Z,8.20
2023-05-07T19:09:42.395Z,8.06
2023-05-07T19:14:57.623Z,7.90
2023-05-07T19:25:21.330Z,7.63
2023-05-07T19:30:30.462Z,7.49
2023-05-07T19:35:39.726Z,7.37
2023-05-07T19:40:47.793Z,7.12
2023-05-07T19:45:56.900Z,6.89
2023-05-07T19:51:04.114Z,6.65
2023-05-07T19:56:14.393Z,6.64
2023-05-07T20:01:29.105Z,6.55
2023-05-07T20:06:35.868Z,6.38
2023-05-07T20:11:43.400Z,6.35
2023-05-07T20:16:51.781Z,6.37
2023-05-07T20:22:00.495Z,6.13
2023-05-07T20:27:07.566Z,6.03
2023-05-07T20:32:16.239Z,5.94
2023-05-07T20:37:25.905Z,5.90
2023-05-07T20:42:33.096Z,5.82
2023-05-07T20:47:43.221Z,5.67
2023-05-07T20:52:50.208Z,5.51
2023-05-07T20:57:57.369Z,5.32
2023-05-07T21:03:06.667Z,5.24
2023-05-07T21:08:13.560Z,5.09
2023-05-07T21:13:20.606Z,4.90
2023-05-07T21:18:31.167Z,4.76
2023-05-07T21:23:38.459Z,4.78
2023-05-07T21:28:45.638Z,4.82
2023-05-07T21:34:13.909Z,4.85
2023-05-07T21:39:23.011Z,4.76
2023-05-07T21:44:34.632Z,4.66
2023-05-07T21:49:43.137Z,4.50
2023-05-07T21:54:49.862Z,4.47
2023-05-07T21:59:56.380Z,4.26
2023-05-07T22:05:04.879Z,4.20
2023-05-07T22:10:13.766Z,4.18
2023-05-07T22:15:21.331Z,4.17
2023-05-07T22:20:30.358Z,4.00
2023-05-07T22:25:37.219Z,3.91
2023-05-07T22:30:44.162Z,3.94
2023-05-07T22:35:52.588Z,3.92
2023-05-07T22:41:00.445Z,3.70
2023-05-07T22:46:08.359Z,3.74
2023-05-07T22:51:17.448Z,3.66
2023-05-07T22:56:23.799Z,3.59
2023-05-07T23:01:30.540Z,3.35
2023-05-07T23:06:38.995Z,3.42
2023-05-07T23:11:47.291Z,3.42
2023-05-07T23:16:53.993Z,3.40
2023-05-07T23:22:02.216Z,3.22
2023-05-07T23:27:09.568Z,3.20
2023-05-07T23:32:16.466Z,3.14
2023-05-07T23:37:26.288Z,3.08
2023-05-07T23:42:32.999Z,2.98
2023-05-07T23:47:39.710Z,2.90
2023-05-07T23:52:48.122Z,2.81
2023-05-07T23:57:54.787Z,2.59
